Vieux-Fort の空港の天気 - METARとTAF

ヘウノラ国際空港 ( TLPL / UVF ) - セントルシア Vieux-Fort
飛行場実況気象(Metar)
観測時間08/05 18:00 AST (08/05 22:00 UTC)
風向・風速東北東 7m/s
視程10km以上
天気現象
全天の4割程度の雲 雲底高度 820m
気温29℃
湿度70%
気圧1013hPa
METARTLPL 052200Z 07013KT 9999 SCT027 29/23 Q1013 NOSIG
過去の天気等 Google飛行場航空写真 Wunderground天気予報

過去48時間のMETAR

飛行場予報(TAF)
発表時間: 8/05 13:00 AST (8/05 17:00 UTC)
予報対象時間: 5日14時 AST ~ 6日14時 AST
風向・風速東 9m/s
視程10km以上
全天の4割程度の雲 雲底高度 730m
6日8時 AST ~ 6日14時 AST に一時的に
視程5000m
天気現象しゅう雨
少しの積乱雲 雲底高度 460m
全天の8割程度の雲 雲底高度 610m
全天の8割程度の雲 雲底高度 1220m
TAF TLPL 051700Z 0518/0618 09017KT 9999 SCT024
TEMPO 0612/0618 5000 SHRA FEW015CB BKN020 BKN040